createdAt,value
2023-05-14T00:02:24.142Z,96966.91
2023-05-14T00:04:50.702Z,97007.56
2023-05-14T00:07:17.128Z,96978.66
2023-05-14T00:09:43.577Z,97003.91
2023-05-14T00:12:10.058Z,96985.00
2023-05-14T00:14:36.421Z,96970.56
2023-05-14T00:17:02.805Z,96973.72
2023-05-14T00:19:29.360Z,96984.94
2023-05-14T00:21:55.758Z,96976.09
2023-05-14T00:24:22.225Z,96986.25
2023-05-14T00:26:48.735Z,96981.69
2023-05-14T00:29:15.096Z,96982.72
2023-05-14T00:31:41.511Z,96956.59
2023-05-14T00:34:08.339Z,96979.50
2023-05-14T00:36:34.801Z,96966.38
2023-05-14T00:39:01.232Z,96959.63
2023-05-14T00:41:27.694Z,96993.16
2023-05-14T00:43:54.159Z,96978.84
2023-05-14T00:46:20.639Z,96963.53
2023-05-14T00:48:47.135Z,96941.53
2023-05-14T00:51:13.526Z,96980.25
2023-05-14T00:53:39.909Z,96981.06
2023-05-14T00:56:06.410Z,96986.22
2023-05-14T00:58:32.934Z,96967.06
2023-05-14T01:00:59.685Z,96958.06
2023-05-14T01:03:26.769Z,96984.47
2023-05-14T01:06:08.668Z,96979.31
2023-05-14T01:08:35.222Z,96958.59
2023-05-14T01:11:09.157Z,96955.81
2023-05-14T01:13:55.882Z,96948.09
2023-05-14T01:16:22.568Z,96946.41
2023-05-14T01:18:49.103Z,96951.34
2023-05-14T01:21:24.026Z,96920.91
2023-05-14T01:23:50.458Z,96940.69
2023-05-14T01:26:16.834Z,96951.31
2023-05-14T01:28:43.336Z,96940.53
2023-05-14T01:31:12.069Z,96921.13
2023-05-14T01:33:38.596Z,96966.28
2023-05-14T01:36:05.144Z,96945.34
2023-05-14T01:38:31.581Z,96932.91
2023-05-14T01:40:58.063Z,96927.44
2023-05-14T01:43:24.575Z,96942.50
2023-05-14T01:45:51.119Z,96940.91
2023-05-14T01:48:17.731Z,96937.94
2023-05-14T01:50:44.316Z,96928.81
2023-05-14T01:53:10.875Z,96930.44
2023-05-14T01:55:37.357Z,96938.28
2023-05-14T01:58:03.848Z,96934.72
2023-05-14T02:00:30.408Z,96923.72
2023-05-14T02:02:56.971Z,96942.66
2023-05-14T02:05:23.558Z,96908.94
2023-05-14T02:07:50.168Z,96943.38
2023-05-14T02:10:16.655Z,96926.19
2023-05-14T02:12:43.093Z,96925.84
2023-05-14T02:15:09.833Z,96919.88
2023-05-14T02:17:38.361Z,96917.31
2023-05-14T02:20:05.139Z,96915.06
2023-05-14T02:22:31.561Z,96948.72
2023-05-14T02:24:58.036Z,96908.94
2023-05-14T02:27:24.614Z,96907.00
2023-05-14T02:29:51.062Z,96913.47
2023-05-14T02:32:17.625Z,96912.81
2023-05-14T02:34:44.220Z,96916.88
2023-05-14T02:37:11.022Z,96920.66
2023-05-14T02:39:37.459Z,96914.06
2023-05-14T02:42:03.946Z,96919.50
2023-05-14T02:44:30.459Z,96911.31
2023-05-14T02:46:56.856Z,96911.50
2023-05-14T02:49:23.392Z,96897.81
2023-05-14T02:51:49.894Z,96900.84
2023-05-14T02:54:16.299Z,96885.81
2023-05-14T02:56:42.740Z,96887.91
2023-05-14T02:59:09.096Z,96883.09
2023-05-14T03:01:36.026Z,96875.16
2023-05-14T03:04:02.848Z,96871.78
2023-05-14T03:06:29.273Z,96900.03
2023-05-14T03:08:55.726Z,96901.38
2023-05-14T03:11:22.219Z,96887.91
2023-05-14T03:13:48.632Z,96896.44
2023-05-14T03:16:15.363Z,96907.91
2023-05-14T03:18:41.906Z,96921.84
2023-05-14T03:21:08.352Z,96916.69
2023-05-14T03:23:34.943Z,96893.66
2023-05-14T03:26:02.024Z,96881.84
2023-05-14T03:28:28.513Z,96895.50
2023-05-14T03:30:55.256Z,96905.78
2023-05-14T03:33:21.931Z,96893.91
2023-05-14T03:35:48.463Z,96878.63
2023-05-14T03:38:14.906Z,96895.53
2023-05-14T03:40:41.382Z,96877.28
2023-05-14T03:43:08.049Z,96894.28
2023-05-14T03:45:34.916Z,96870.97
2023-05-14T03:48:01.470Z,96866.78
2023-05-14T03:50:28.058Z,96867.06
2023-05-14T03:52:54.523Z,96879.16
2023-05-14T03:55:21.111Z,96872.19
2023-05-14T03:57:50.491Z,96876.47
2023-05-14T04:00:16.974Z,96871.66
2023-05-14T04:02:43.866Z,96896.69
2023-05-14T04:05:10.510Z,96870.69
2023-05-14T04:07:37.031Z,96882.47
2023-05-14T04:10:04.715Z,96897.81
2023-05-14T04:12:31.303Z,96884.09
2023-05-14T04:14:58.050Z,96858.00
2023-05-14T04:17:24.867Z,96881.75
2023-05-14T04:19:51.407Z,96893.34
2023-05-14T04:22:17.785Z,96873.50
2023-05-14T04:24:44.267Z,96881.28
2023-05-14T04:27:10.635Z,96879.31
2023-05-14T04:29:37.085Z,96876.38
2023-05-14T04:32:03.967Z,96887.31
2023-05-14T04:34:30.547Z,96884.84
2023-05-14T04:36:57.025Z,96850.41
2023-05-14T04:39:23.439Z,96883.66
2023-05-14T04:41:49.871Z,96881.16
2023-05-14T04:44:16.219Z,96890.72
2023-05-14T04:46:42.679Z,96877.28
2023-05-14T04:49:09.047Z,96894.38
2023-05-14T04:51:35.415Z,96853.09
2023-05-14T04:54:01.894Z,96892.47
2023-05-14T04:56:28.388Z,96874.16
2023-05-14T04:58:54.768Z,96880.44
2023-05-14T05:01:21.226Z,96898.31
2023-05-14T05:03:47.865Z,96909.19
2023-05-14T05:06:14.327Z,96859.81
2023-05-14T05:08:40.803Z,96905.09
2023-05-14T05:11:07.293Z,96890.03
2023-05-14T05:13:33.678Z,96880.63
2023-05-14T05:16:00.168Z,96894.63
2023-05-14T05:18:26.637Z,96885.34
2023-05-14T05:20:53.117Z,96872.56
2023-05-14T05:23:19.619Z,96880.97
2023-05-14T05:25:45.980Z,96887.94
2023-05-14T05:28:12.470Z,96872.47
2023-05-14T05:30:39.561Z,96895.84
2023-05-14T05:33:06.042Z,96884.38
2023-05-14T05:35:32.471Z,96867.97
2023-05-14T05:38:01.361Z,96860.63
2023-05-14T05:40:28.315Z,96903.06
2023-05-14T05:42:54.786Z,96888.09
2023-05-14T05:45:21.274Z,96883.44
2023-05-14T05:47:47.825Z,96893.94
2023-05-14T05:50:14.473Z,96891.22
2023-05-14T05:52:40.910Z,96888.53
2023-05-14T05:55:07.572Z,96885.25
2023-05-14T05:57:34.010Z,96885.66
2023-05-14T06:00:00.464Z,96876.16
2023-05-14T06:02:27.067Z,96873.97
2023-05-14T06:04:53.723Z,96881.47
2023-05-14T06:07:20.312Z,96894.25
2023-05-14T06:09:46.765Z,96892.06
2023-05-14T06:12:13.148Z,96907.34
2023-05-14T06:14:39.640Z,96897.75
2023-05-14T06:17:06.004Z,96894.25
2023-05-14T06:19:32.465Z,96893.72
2023-05-14T06:21:59.015Z,96901.22
2023-05-14T06:24:25.421Z,96881.00
2023-05-14T06:26:51.819Z,96914.09
2023-05-14T06:29:18.317Z,96875.59
2023-05-14T06:31:44.685Z,96904.16
2023-05-14T06:34:11.217Z,96913.91
2023-05-14T06:36:37.698Z,96891.41
2023-05-14T06:39:04.096Z,96912.50
2023-05-14T06:41:30.551Z,96902.25
2023-05-14T06:43:57.039Z,96903.72
2023-05-14T06:46:23.516Z,96932.78
2023-05-14T06:48:50.064Z,96906.19
2023-05-14T06:51:16.565Z,96874.59
2023-05-14T06:53:42.992Z,96894.69
2023-05-14T06:56:09.430Z,96911.19
2023-05-14T06:58:35.961Z,96905.31
2023-05-14T07:01:02.484Z,96889.06
2023-05-14T07:03:28.982Z,96890.22
2023-05-14T07:05:55.482Z,96898.88
2023-05-14T07:08:21.878Z,96906.03
2023-05-14T07:10:48.343Z,96884.38
2023-05-14T07:13:14.841Z,96900.03
2023-05-14T07:15:41.532Z,96871.00
2023-05-14T07:18:07.956Z,96881.56
2023-05-14T07:20:34.556Z,96853.19
2023-05-14T07:23:00.973Z,96881.38
2023-05-14T07:25:27.364Z,96887.75
2023-05-14T07:27:53.803Z,96891.75
2023-05-14T07:30:20.607Z,96864.78
2023-05-14T07:32:47.208Z,96864.16
2023-05-14T07:35:14.066Z,96860.97
2023-05-14T07:37:40.529Z,96865.50
2023-05-14T07:40:07.250Z,96842.97
2023-05-14T07:42:36.416Z,96861.00
2023-05-14T07:45:04.150Z,96851.56
2023-05-14T07:47:30.817Z,96835.63
2023-05-14T07:49:57.427Z,96858.66
2023-05-14T07:52:23.985Z,96872.78
2023-05-14T07:54:50.896Z,96849.16
2023-05-14T07:57:17.949Z,96843.97
2023-05-14T07:59:44.344Z,96848.31
2023-05-14T08:02:10.765Z,96848.66
2023-05-14T08:04:37.577Z,96847.47
2023-05-14T08:07:04.104Z,96832.53
2023-05-14T08:09:30.583Z,96817.78
2023-05-14T08:11:57.099Z,96834.00
2023-05-14T08:14:23.505Z,96839.56
2023-05-14T08:16:49.992Z,96827.13
2023-05-14T08:19:16.739Z,96813.75
2023-05-14T08:21:43.693Z,96814.03
2023-05-14T08:24:10.182Z,96820.09
2023-05-14T08:26:36.762Z,96854.97
2023-05-14T08:29:03.177Z,96821.38
2023-05-14T08:31:29.691Z,96832.16
2023-05-14T08:33:56.306Z,96812.72
2023-05-14T08:36:22.793Z,96834.63
2023-05-14T08:38:49.276Z,96821.63
2023-05-14T08:41:15.705Z,96829.63
2023-05-14T08:43:44.323Z,96800.50
2023-05-14T08:46:10.769Z,96801.88
2023-05-14T08:48:37.222Z,96812.31
2023-05-14T08:51:03.704Z,96808.66
2023-05-14T08:53:30.121Z,96793.06
2023-05-14T08:55:56.532Z,96812.81
2023-05-14T08:58:23.001Z,96787.88
2023-05-14T09:00:49.548Z,96780.75
2023-05-14T09:03:16.118Z,96792.00
2023-05-14T09:05:42.714Z,96780.53
2023-05-14T09:08:09.146Z,96810.31
2023-05-14T09:10:35.552Z,96808.75
2023-05-14T09:13:02.071Z,96765.59
2023-05-14T09:15:28.513Z,96799.50
2023-05-14T09:17:55.018Z,96782.00
2023-05-14T09:20:21.507Z,96786.59
2023-05-14T09:22:48.080Z,96781.94
2023-05-14T09:25:14.635Z,96784.56
2023-05-14T09:27:41.115Z,96770.31
2023-05-14T09:30:16.559Z,96789.53
2023-05-14T09:32:43.310Z,96779.59
2023-05-14T09:35:11.025Z,96780.94
2023-05-14T09:37:37.609Z,96777.66
2023-05-14T09:40:07.605Z,96774.78
2023-05-14T09:42:33.998Z,96776.91
2023-05-14T09:45:00.607Z,96766.16
2023-05-14T09:47:27.162Z,96797.56
2023-05-14T09:49:53.697Z,96736.94
2023-05-14T09:52:20.167Z,96748.78
2023-05-14T09:54:46.603Z,96750.31
2023-05-14T09:57:13.075Z,96772.44
2023-05-14T09:59:39.534Z,96759.66
2023-05-14T10:02:05.920Z,96738.22
2023-05-14T10:04:32.870Z,96747.94
2023-05-14T10:06:59.387Z,96739.47
2023-05-14T10:09:25.770Z,96748.03
2023-05-14T10:11:52.914Z,96731.94
2023-05-14T10:14:29.651Z,96754.72
2023-05-14T10:16:56.189Z,96740.06
2023-05-14T10:19:23.764Z,96737.88
2023-05-14T10:21:57.071Z,96731.19
2023-05-14T10:24:23.739Z,96729.38
2023-05-14T10:26:50.253Z,96735.22
2023-05-14T10:29:16.758Z,96740.63
2023-05-14T10:31:52.836Z,96738.56
2023-05-14T10:34:32.163Z,96750.63
2023-05-14T10:37:02.332Z,96754.34
2023-05-14T10:39:58.220Z,96740.72
2023-05-14T10:42:28.527Z,96734.59
2023-05-14T10:44:55.540Z,96739.22
2023-05-14T10:47:22.008Z,96727.47
2023-05-14T10:49:48.399Z,96732.06
2023-05-14T10:52:16.128Z,96737.09
2023-05-14T10:54:46.569Z,96717.88
2023-05-14T10:57:13.069Z,96722.09
2023-05-14T10:59:41.651Z,96724.97
2023-05-14T11:02:18.255Z,96722.78
2023-05-14T11:04:50.548Z,96678.28
2023-05-14T11:07:17.115Z,96717.81
2023-05-14T11:09:43.574Z,96710.78
2023-05-14T11:12:10.013Z,96710.25
2023-05-14T11:14:36.438Z,96712.84
2023-05-14T11:17:02.915Z,96703.94
2023-05-14T11:19:29.457Z,96696.75
2023-05-14T11:21:55.932Z,96695.41
2023-05-14T11:24:22.390Z,96685.59
2023-05-14T11:26:48.743Z,96675.53
2023-05-14T11:29:15.128Z,96664.78
2023-05-14T11:31:41.604Z,96675.53
2023-05-14T11:34:08.106Z,96673.41
2023-05-14T11:36:36.215Z,96674.84
2023-05-14T11:39:02.768Z,96667.97
2023-05-14T11:41:29.160Z,96682.22
2023-05-14T11:43:55.535Z,96671.84
2023-05-14T11:46:22.130Z,96657.13
2023-05-14T11:48:48.569Z,96658.19
2023-05-14T11:51:15.002Z,96655.88
2023-05-14T11:53:41.517Z,96657.09
2023-05-14T11:56:09.677Z,96653.88
2023-05-14T11:58:36.472Z,96650.63
2023-05-14T12:01:02.995Z,96637.72
2023-05-14T12:03:30.325Z,96633.22
2023-05-14T12:05:57.031Z,96640.81
2023-05-14T12:08:25.884Z,96636.13
2023-05-14T12:10:55.379Z,96636.31
2023-05-14T12:13:22.107Z,96627.06
2023-05-14T12:15:48.705Z,96620.09
2023-05-14T12:18:23.803Z,96615.66
2023-05-14T12:20:51.538Z,96617.31
2023-05-14T12:23:27.790Z,96620.66
2023-05-14T12:25:54.316Z,96611.47
2023-05-14T12:28:20.705Z,96601.91
2023-05-14T12:30:47.201Z,96626.09
2023-05-14T12:33:13.706Z,96626.34
2023-05-14T12:35:40.195Z,96625.34
2023-05-14T12:38:06.787Z,96594.31
2023-05-14T12:40:33.282Z,96605.59
2023-05-14T12:42:59.658Z,96616.50
2023-05-14T12:45:26.242Z,96595.09
2023-05-14T12:47:52.824Z,96586.69
2023-05-14T12:50:19.356Z,96613.91
2023-05-14T12:52:45.805Z,96617.84
2023-05-14T12:55:12.230Z,96600.50
2023-05-14T12:57:39.113Z,96614.13
2023-05-14T13:00:06.418Z,96592.22
2023-05-14T13:02:33.089Z,96553.66
2023-05-14T13:05:08.921Z,96593.69
2023-05-14T13:07:35.519Z,96606.09
2023-05-14T13:10:02.017Z,96623.59
2023-05-14T13:12:28.383Z,96595.34
2023-05-14T13:14:54.912Z,96584.53
2023-05-14T13:17:21.426Z,96593.03
2023-05-14T13:19:47.905Z,96554.97
2023-05-14T13:22:14.415Z,96572.88
2023-05-14T13:24:40.863Z,96595.72
2023-05-14T13:27:07.277Z,96588.34
2023-05-14T13:29:33.692Z,96573.84
2023-05-14T13:32:00.238Z,96597.06
2023-05-14T13:34:26.614Z,96614.56
2023-05-14T13:36:53.051Z,96606.88
2023-05-14T13:39:19.461Z,96603.44
2023-05-14T13:41:45.890Z,96605.72
2023-05-14T13:44:12.367Z,96587.25
2023-05-14T13:46:38.803Z,96600.69
2023-05-14T13:49:05.292Z,96607.78
2023-05-14T13:51:31.821Z,96632.72
2023-05-14T13:53:58.236Z,96658.47
2023-05-14T13:56:24.687Z,96639.13
2023-05-14T13:58:51.238Z,96650.09
2023-05-14T14:01:17.658Z,96644.97
2023-05-14T14:03:44.096Z,96613.66
2023-05-14T14:06:10.667Z,96625.91
2023-05-14T14:08:37.112Z,96656.28
2023-05-14T14:11:03.546Z,96673.81
2023-05-14T14:13:29.997Z,96646.75
2023-05-14T14:15:56.454Z,96634.47
2023-05-14T14:18:22.848Z,96620.13
2023-05-14T14:20:49.351Z,96611.97
2023-05-14T14:23:15.881Z,96622.59
2023-05-14T14:25:42.418Z,96595.28
2023-05-14T14:28:08.842Z,96628.50
2023-05-14T14:30:35.475Z,96590.47
2023-05-14T14:33:01.960Z,96598.94
2023-05-14T14:35:28.516Z,96625.50
2023-05-14T14:37:54.930Z,96608.75
2023-05-14T14:40:21.445Z,96603.19
2023-05-14T14:42:48.035Z,96606.69
2023-05-14T14:45:15.562Z,96579.47
2023-05-14T14:47:43.094Z,96611.03
2023-05-14T14:50:09.704Z,96602.84
2023-05-14T14:52:36.133Z,96620.69
2023-05-14T14:55:02.564Z,96624.16
2023-05-14T14:57:28.993Z,96620.44
2023-05-14T14:59:55.356Z,96615.31
2023-05-14T15:02:21.983Z,96623.75
2023-05-14T15:04:48.543Z,96649.50
2023-05-14T15:07:15.210Z,96615.34
2023-05-14T15:09:41.587Z,96652.28
2023-05-14T15:12:08.076Z,96645.97
2023-05-14T15:14:34.690Z,96643.88
2023-05-14T15:17:01.220Z,96634.00
2023-05-14T15:19:28.836Z,96641.00
2023-05-14T15:21:55.323Z,96647.34
2023-05-14T15:24:21.797Z,96650.50
2023-05-14T15:26:48.348Z,96650.50
2023-05-14T15:29:14.739Z,96645.44
2023-05-14T15:31:41.422Z,96662.78
2023-05-14T15:34:08.036Z,96645.47
2023-05-14T15:36:34.528Z,96644.84
2023-05-14T15:39:01.081Z,96643.72
2023-05-14T15:41:27.549Z,96652.66
2023-05-14T15:43:54.026Z,96637.84
2023-05-14T15:46:20.429Z,96628.56
2023-05-14T15:48:46.961Z,96622.88
2023-05-14T15:51:13.636Z,96645.00
2023-05-14T15:53:40.096Z,96607.75
2023-05-14T15:56:06.764Z,96648.72
2023-05-14T15:58:33.237Z,96625.44
2023-05-14T16:00:59.762Z,96635.78
2023-05-14T16:03:26.385Z,96627.31
2023-05-14T16:05:52.965Z,96632.28
2023-05-14T16:08:19.466Z,96624.28
2023-05-14T16:10:45.946Z,96605.50
2023-05-14T16:13:12.558Z,96634.84
2023-05-14T16:15:39.388Z,96600.56
2023-05-14T16:18:06.071Z,96618.91
2023-05-14T16:20:32.681Z,96575.38
2023-05-14T16:22:59.166Z,96616.59
2023-05-14T16:25:25.606Z,96642.94
2023-05-14T16:27:52.026Z,96606.28
2023-05-14T16:30:18.483Z,96603.28
2023-05-14T16:32:45.013Z,96606.78
2023-05-14T16:35:11.535Z,96580.19
2023-05-14T16:37:38.248Z,96594.97
2023-05-14T16:40:04.894Z,96617.44
2023-05-14T16:42:31.500Z,96614.28
2023-05-14T16:44:57.883Z,96602.78
2023-05-14T16:47:24.303Z,96583.47
2023-05-14T16:49:50.895Z,96611.09
2023-05-14T16:52:17.382Z,96589.13
2023-05-14T16:54:43.847Z,96585.06
2023-05-14T16:57:10.362Z,96583.00
2023-05-14T16:59:36.721Z,96587.19
2023-05-14T17:02:03.279Z,96595.75
2023-05-14T17:04:30.630Z,96604.88
2023-05-14T17:06:57.123Z,96596.53
2023-05-14T17:09:23.650Z,96595.59
2023-05-14T17:11:50.299Z,96596.09
2023-05-14T17:14:16.740Z,96585.25
2023-05-14T17:16:45.476Z,96554.84
2023-05-14T17:19:12.095Z,96597.84
2023-05-14T17:21:38.673Z,96593.59
2023-05-14T17:24:05.317Z,96593.91
2023-05-14T17:26:31.875Z,96600.41
2023-05-14T17:28:58.291Z,96588.16
2023-05-14T17:31:24.873Z,96580.06
2023-05-14T17:33:51.381Z,96601.41
2023-05-14T17:36:17.784Z,96593.75
2023-05-14T17:38:44.239Z,96616.97
2023-05-14T17:41:10.699Z,96598.38
2023-05-14T17:43:37.100Z,96609.34
2023-05-14T17:46:03.813Z,96579.41
2023-05-14T17:48:30.392Z,96605.03
2023-05-14T17:50:56.847Z,96594.38
2023-05-14T17:53:23.289Z,96604.22
2023-05-14T17:55:49.779Z,96602.63
2023-05-14T17:58:16.326Z,96603.56
2023-05-14T18:00:42.948Z,96609.78
2023-05-14T18:03:09.548Z,96574.44
2023-05-14T18:05:36.092Z,96606.72
2023-05-14T18:08:02.605Z,96582.88
2023-05-14T18:10:29.829Z,96583.84
2023-05-14T18:12:56.364Z,96587.00
2023-05-14T18:15:22.933Z,96592.09
2023-05-14T18:17:49.603Z,96600.53
2023-05-14T18:20:16.153Z,96593.09
2023-05-14T18:22:42.604Z,96585.00
2023-05-14T18:25:09.244Z,96589.59
2023-05-14T18:27:35.640Z,96586.72
2023-05-14T18:30:02.018Z,96588.31
2023-05-14T18:32:28.782Z,96576.97
2023-05-14T18:34:55.233Z,96592.75
2023-05-14T18:37:21.634Z,96597.53
2023-05-14T18:39:48.082Z,96587.69
2023-05-14T18:42:14.534Z,96602.00
2023-05-14T18:44:41.244Z,96592.63
2023-05-14T18:47:07.724Z,96581.34
2023-05-14T18:49:34.173Z,96585.44
2023-05-14T18:52:00.581Z,96583.88
2023-05-14T18:54:27.090Z,96590.78
2023-05-14T18:56:53.488Z,96568.44
2023-05-14T18:59:19.877Z,96596.53
2023-05-14T19:01:46.405Z,96586.28
2023-05-14T19:04:12.811Z,96592.28
2023-05-14T19:06:39.327Z,96591.13
2023-05-14T19:09:05.877Z,96584.66
2023-05-14T19:11:32.291Z,96575.59
2023-05-14T19:13:58.795Z,96596.44
2023-05-14T19:16:25.342Z,96572.25
2023-05-14T19:18:51.893Z,96568.88
2023-05-14T19:21:18.384Z,96581.44
2023-05-14T19:23:44.933Z,96580.81
2023-05-14T19:26:11.337Z,96572.53
2023-05-14T19:28:37.831Z,96571.25
2023-05-14T19:31:04.720Z,96585.16
2023-05-14T19:33:31.088Z,96607.50
2023-05-14T19:35:57.629Z,96585.00
2023-05-14T19:38:24.230Z,96582.47
2023-05-14T19:40:50.700Z,96583.34
2023-05-14T19:43:17.228Z,96603.50
2023-05-14T19:45:43.737Z,96581.09
2023-05-14T19:48:10.169Z,96610.69
2023-05-14T19:50:36.787Z,96588.25
2023-05-14T19:53:03.260Z,96588.06
2023-05-14T19:55:29.711Z,96593.28
2023-05-14T19:57:56.096Z,96567.81
2023-05-14T20:00:22.725Z,96578.63
2023-05-14T20:02:49.584Z,96563.03
2023-05-14T20:05:16.142Z,96583.22
2023-05-14T20:07:42.632Z,96580.25
2023-05-14T20:10:09.435Z,96572.44
2023-05-14T20:12:35.936Z,96567.78
2023-05-14T20:15:02.370Z,96566.38
2023-05-14T20:17:28.913Z,96555.59
2023-05-14T20:19:55.392Z,96592.47
2023-05-14T20:22:21.872Z,96568.25
2023-05-14T20:24:48.237Z,96560.31
2023-05-14T20:27:14.631Z,96594.31
2023-05-14T20:29:41.072Z,96562.88
2023-05-14T20:32:07.561Z,96572.69
2023-05-14T20:34:34.036Z,96572.69
2023-05-14T20:37:00.573Z,96609.44
2023-05-14T20:39:26.941Z,96597.00
2023-05-14T20:41:53.344Z,96594.63
2023-05-14T20:44:20.566Z,96578.91
2023-05-14T20:46:47.341Z,96568.81
2023-05-14T20:49:13.970Z,96585.06
2023-05-14T20:51:40.495Z,96559.59
2023-05-14T20:54:07.139Z,96559.78
2023-05-14T20:56:33.603Z,96566.91
2023-05-14T20:59:00.153Z,96543.03
2023-05-14T21:01:26.849Z,96560.19
2023-05-14T21:03:53.533Z,96546.72
2023-05-14T21:06:20.164Z,96556.09
2023-05-14T21:08:46.762Z,96570.41
2023-05-14T21:11:13.312Z,96520.22
2023-05-14T21:13:39.814Z,96544.53
2023-05-14T21:16:06.340Z,96555.78
2023-05-14T21:18:32.909Z,96562.16
2023-05-14T21:20:59.543Z,96583.28
2023-05-14T21:23:26.034Z,96566.59
2023-05-14T21:25:52.542Z,96564.03
2023-05-14T21:28:19.029Z,96559.59
2023-05-14T21:30:45.394Z,96572.75
2023-05-14T21:33:12.061Z,96545.06
2023-05-14T21:35:38.664Z,96531.91
2023-05-14T21:38:05.184Z,96530.78
2023-05-14T21:40:31.550Z,96539.63
2023-05-14T21:42:58.039Z,96534.91
2023-05-14T21:45:24.429Z,96550.03
2023-05-14T21:47:50.970Z,96560.38
2023-05-14T21:50:17.488Z,96548.22
2023-05-14T21:52:43.977Z,96523.28
2023-05-14T21:55:10.507Z,96493.00
2023-05-14T21:57:37.003Z,96527.00
2023-05-14T22:00:03.781Z,96543.91
2023-05-14T22:02:30.516Z,96518.22
2023-05-14T22:04:56.998Z,96556.19
2023-05-14T22:07:23.502Z,96552.56
2023-05-14T22:09:50.304Z,96553.66
2023-05-14T22:12:16.903Z,96520.72
2023-05-14T22:14:43.313Z,96549.13
2023-05-14T22:17:09.720Z,96537.13
2023-05-14T22:19:36.213Z,96542.84
2023-05-14T22:22:02.725Z,96524.91
2023-05-14T22:24:29.211Z,96523.94
2023-05-14T22:26:55.699Z,96545.53
2023-05-14T22:29:22.142Z,96523.59
2023-05-14T22:31:48.768Z,96558.09
2023-05-14T22:34:15.477Z,96567.63
2023-05-14T22:36:41.932Z,96547.50
2023-05-14T22:39:08.879Z,96515.56
2023-05-14T22:41:36.164Z,96537.00
2023-05-14T22:44:02.531Z,96546.66
2023-05-14T22:46:29.582Z,96546.97
2023-05-14T22:48:56.161Z,96565.03
2023-05-14T22:51:22.517Z,96519.31
2023-05-14T22:53:49.021Z,96533.94
2023-05-14T22:56:15.506Z,96535.66
2023-05-14T22:58:41.977Z,96505.66
2023-05-14T23:01:08.345Z,96509.47
2023-05-14T23:03:34.824Z,96503.28
2023-05-14T23:06:01.472Z,96497.31
2023-05-14T23:08:27.846Z,96498.69
2023-05-14T23:10:54.300Z,96487.09
2023-05-14T23:13:20.705Z,96502.69
2023-05-14T23:15:47.077Z,96457.09
2023-05-14T23:18:13.573Z,96499.91
2023-05-14T23:20:40.181Z,96493.69
2023-05-14T23:23:06.669Z,96490.44
2023-05-14T23:25:33.161Z,96503.22
2023-05-14T23:27:59.700Z,96491.16
2023-05-14T23:30:26.203Z,96509.84
2023-05-14T23:32:52.725Z,96470.03
2023-05-14T23:35:19.200Z,96487.06
2023-05-14T23:37:45.701Z,96492.75
2023-05-14T23:40:12.248Z,96482.44
2023-05-14T23:42:38.925Z,96481.66
2023-05-14T23:45:05.515Z,96468.69
2023-05-14T23:47:32.102Z,96471.06
2023-05-14T23:49:58.630Z,96459.06
2023-05-14T23:52:25.054Z,96445.75
2023-05-14T23:54:51.523Z,96432.94
2023-05-14T23:57:17.896Z,96459.44
2023-05-14T23:59:44.310Z,96469.41
